Time;durP1;ratioP1;P1;durP2;ratioP2;P2;SDS_P1;SDS_P2;PMS_P1;PMS_P2;Temp;Humidity;BMP_temperature;BMP_pressure;BME280_temperature;BME280_humidity;BME280_pressure;Samples;Min_cycle;Max_cycle;Signal;HPM_P1;HPM_P2
2022/11/03 00:02:11;;;;;;;5.23;3.80;;;12.50;99.90;14.00;97542.00;;;;5087243;28;20222;-67
2022/11/03 00:06:03;;;;;;;7.03;3.87;;;12.50;99.90;14.10;97545.00;;;;5074033;28;20231;-67
2022/11/03 00:08:10;;;;;;;7.40;4.47;;;12.60;99.90;14.10;97540.00;;;;5079576;28;20211;-67
2022/11/03 00:11:10;;;;;;;7.93;5.13;;;12.60;99.90;14.00;97542.00;;;;5078209;28;20200;-67
2022/11/03 00:13:59;;;;;;;6.17;4.37;;;12.60;99.90;14.00;97534.00;;;;5087399;28;20203;-67
2022/11/03 00:16:47;;;;;;;5.50;4.77;;;12.60;99.90;14.00;97540.00;;;;5090842;28;20269;-67
2022/11/03 00:19:36;;;;;;;6.27;4.70;;;12.60;99.90;14.10;97537.00;;;;5088051;28;20261;-67
2022/11/03 00:22:25;;;;;;;7.57;4.33;;;12.60;99.90;14.20;97544.00;;;;5091476;28;20203;-67
2022/11/03 00:25:15;;;;;;;6.50;4.43;;;12.60;99.90;14.20;97536.00;;;;5084734;28;20368;-67
2022/11/03 00:28:04;;;;;;;6.23;4.40;;;12.60;99.90;14.20;97541.00;;;;5089799;28;20245;-67
2022/11/03 00:30:53;;;;;;;4.77;4.30;;;12.70;99.90;14.30;97541.00;;;;5086235;28;20203;-67
2022/11/03 00:33:43;;;;;;;5.97;5.20;;;12.70;99.90;14.20;97539.00;;;;5090389;28;20199;-67
2022/11/03 00:36:36;;;;;;;6.37;4.10;;;12.70;99.90;14.20;97533.00;;;;5075628;28;20864;-68
2022/11/03 00:39:24;;;;;;;5.53;4.20;;;12.70;99.90;14.20;97536.00;;;;5070964;28;20196;-67
2022/11/03 00:42:14;;;;;;;4.80;3.57;;;12.70;99.90;14.20;97537.00;;;;5081196;28;20206;-67
2022/11/03 00:45:03;;;;;;;6.33;4.27;;;12.70;99.90;14.20;97537.00;;;;5089898;28;20309;-67
2022/11/03 00:51:05;;;;;;;6.23;3.83;;;12.70;99.90;14.30;97534.00;;;;5088783;28;20288;-67
2022/11/03 00:53:56;;;;;;;5.53;4.10;;;12.70;99.90;14.40;97525.00;;;;5083971;28;20662;-67
2022/11/03 00:56:45;;;;;;;5.53;4.47;;;12.80;99.90;14.30;97521.00;;;;5078017;28;20253;-67
2022/11/03 00:59:35;;;;;;;6.03;4.00;;;12.80;99.90;14.30;97520.00;;;;5087006;28;20919;-67
2022/11/03 01:02:23;;;;;;;7.60;4.57;;;12.80;99.90;14.30;97518.00;;;;5084098;28;20210;-67
2022/11/03 01:08:18;;;;;;;8.00;4.30;;;12.80;99.90;14.10;97519.00;;;;5089205;28;20227;-68
2022/11/03 01:14:17;;;;;;;6.00;3.70;;;12.80;99.90;14.00;97511.00;;;;5089293;28;20809;-68
2022/11/03 01:17:09;;;;;;;3.80;3.40;;;12.70;99.90;14.20;97514.00;;;;5088955;28;20662;-67
2022/11/03 01:19:57;;;;;;;8.20;4.13;;;12.70;99.90;14.30;97509.00;;;;5083197;28;20196;-67
2022/11/03 01:22:46;;;;;;;4.90;4.13;;;12.70;99.90;14.30;97501.00;;;;5078916;28;20272;-67
2022/11/03 01:25:36;;;;;;;5.30;4.20;;;12.70;99.90;14.30;97496.00;;;;5074652;28;20725;-67
2022/11/03 01:28:24;;;;;;;4.47;4.07;;;12.70;99.90;14.20;97498.00;;;;5087813;28;20199;-67
2022/11/03 01:31:16;;;;;;;6.67;4.37;;;12.70;99.90;14.30;97500.00;;;;5090745;28;20198;-67
2022/11/03 01:34:06;;;;;;;4.60;3.67;;;12.70;99.90;14.30;97501.00;;;;5088828;28;20191;-67
2022/11/03 01:36:55;;;;;;;10.97;4.37;;;12.70;99.90;14.30;97497.00;;;;5088544;28;20222;-67
2022/11/03 01:39:44;;;;;;;6.13;4.10;;;12.70;99.90;14.30;97497.00;;;;5086045;28;20196;-67
2022/11/03 01:42:32;;;;;;;8.17;4.50;;;12.70;99.90;14.40;97487.00;;;;5090035;28;20188;-68
2022/11/03 01:45:22;;;;;;;9.97;3.60;;;12.80;99.90;14.10;97484.00;;;;5077892;28;20404;-67
2022/11/03 01:48:12;;;;;;;4.73;4.23;;;12.70;99.90;14.10;97476.00;;;;5088730;28;20265;-67
2022/11/03 01:51:04;;;;;;;7.30;3.83;;;12.70;99.90;14.30;97481.00;;;;5088838;28;20249;-67
2022/11/03 01:53:56;;;;;;;5.63;4.40;;;12.70;99.90;14.20;97481.00;;;;5087919;28;20700;-67
2022/11/03 01:56:45;;;;;;;5.57;3.77;;;12.70;99.90;14.10;97483.00;;;;5078175;28;20276;-67
2022/11/03 01:59:34;;;;;;;4.27;3.90;;;12.70;99.90;14.00;97485.00;;;;5084969;28;20327;-67
2022/11/03 02:02:23;;;;;;;4.30;3.90;;;12.70;99.90;14.00;97482.00;;;;5086880;28;20207;-67
2022/11/03 02:05:15;;;;;;;6.03;4.80;;;12.70;99.90;13.80;97472.00;;;;5088084;28;20270;-68
2022/11/03 02:08:10;;;;;;;5.33;3.80;;;12.60;99.90;13.80;97468.00;;;;5088466;28;20257;-67
2022/11/03 02:12:05;;;;;;;4.93;4.43;;;12.60;99.90;14.00;97465.00;;;;5087679;28;20203;-68
2022/11/03 02:14:12;;;;;;;4.70;4.23;;;12.60;99.90;14.20;97457.00;;;;5089962;28;20228;-68
2022/11/03 02:17:06;;;;;;;4.73;3.83;;;12.60;99.90;14.10;97458.00;;;;5090299;28;20203;-67
2022/11/03 02:19:59;;;;;;;5.67;4.03;;;12.60;99.90;14.10;97444.00;;;;5083561;28;20199;-68
2022/11/03 02:23:11;;;;;;;5.57;4.20;;;12.60;99.90;14.30;97445.00;;;;5079785;28;20241;-68
2022/11/03 02:26:02;;;;;;;4.63;4.17;;;12.70;99.90;14.20;97439.00;;;;5077843;28;20223;-68
2022/11/03 02:28:51;;;;;;;6.10;5.43;;;12.70;99.90;14.10;97440.00;;;;5088980;28;20239;-67
2022/11/03 02:31:46;;;;;;;9.63;7.27;;;12.60;99.90;14.30;97440.00;;;;5088979;28;20580;-67
2022/11/03 02:34:42;;;;;;;8.60;6.30;;;12.70;99.90;14.20;97439.00;;;;5088821;28;20206;-67
2022/11/03 02:37:35;;;;;;;10.27;6.53;;;12.80;99.90;14.20;97433.00;;;;5087386;28;20671;-68
2022/11/03 02:40:29;;;;;;;9.33;7.77;;;12.70;99.90;14.40;97436.00;;;;5075546;28;20241;-67
2022/11/03 02:43:22;;;;;;;12.07;7.63;;;12.70;99.90;14.40;97437.00;;;;5087802;28;20663;-67
2022/11/03 02:46:15;;;;;;;10.43;8.17;;;12.80;99.90;14.20;97444.00;;;;5088195;28;20253;-67
2022/11/03 02:49:03;;;;;;;13.40;8.53;;;12.80;99.90;14.40;97447.00;;;;5088670;28;20264;-67
2022/11/03 02:52:00;;;;;;;12.07;9.50;;;12.80;99.90;14.40;97444.00;;;;5088163;28;20249;-68
2022/11/03 02:54:49;;;;;;;6.37;5.50;;;12.90;99.90;14.20;97448.00;;;;5087975;28;20199;-68
2022/11/03 02:57:45;;;;;;;6.23;5.60;;;12.90;99.90;14.20;97438.00;;;;5088265;28;20252;-68
2022/11/03 03:00:43;;;;;;;9.63;6.70;;;12.80;99.90;14.40;97444.00;;;;5076828;28;20253;-67
2022/11/03 03:03:38;;;;;;;10.13;6.17;;;12.80;99.90;14.20;97449.00;;;;5086984;28;20206;-68
2022/11/03 03:06:32;;;;;;;7.43;6.07;;;12.80;99.90;14.40;97443.00;;;;5077884;28;20280;-68
2022/11/03 03:09:26;;;;;;;14.60;8.20;;;12.80;99.90;14.50;97440.00;;;;5088733;28;20191;-68
2022/11/03 03:12:17;;;;;;;11.03;8.07;;;12.80;99.90;14.50;97440.00;;;;5087592;28;20353;-68
2022/11/03 03:15:08;;;;;;;7.07;5.90;;;12.90;99.90;14.30;97434.00;;;;5081247;28;20259;-68
2022/11/03 03:18:11;;;;;;;10.63;7.07;;;12.90;99.90;14.40;97428.00;;;;5080490;28;20203;-68
2022/11/03 03:21:09;;;;;;;10.10;7.30;;;12.80;99.90;14.40;97434.00;;;;5074446;28;20187;-68
2022/11/03 03:24:02;;;;;;;8.67;7.03;;;12.80;99.90;14.50;97443.00;;;;5092381;28;20247;-67
2022/11/03 03:26:53;;;;;;;17.47;10.23;;;12.90;99.90;14.40;97435.00;;;;5092676;28;20274;-68
2022/11/03 03:29:46;;;;;;;10.90;8.33;;;12.80;99.90;14.40;97436.00;;;;5081480;28;20260;-68
2022/11/03 03:32:38;;;;;;;12.20;9.03;;;12.80;99.90;14.40;97438.00;;;;5093542;28;20272;-68
2022/11/03 03:35:31;;;;;;;14.77;9.77;;;12.90;99.90;14.40;97450.00;;;;5086884;28;20227;-68
2022/11/03 03:38:24;;;;;;;11.63;9.33;;;12.90;99.90;14.30;97434.00;;;;5091510;28;20218;-68
2022/11/03 03:41:20;;;;;;;11.53;8.27;;;12.90;99.90;14.20;97430.00;;;;5092222;28;20288;-68
2022/11/03 03:44:10;;;;;;;11.23;8.23;;;12.80;99.90;14.30;97431.00;;;;5091381;28;20270;-68
2022/11/03 03:47:03;;;;;;;10.23;7.33;;;12.80;99.90;14.30;97434.00;;;;5088249;28;20263;-68
2022/11/03 03:49:52;;;;;;;14.40;9.97;;;12.80;99.90;14.00;97438.00;;;;5084705;28;20545;-68
2022/11/03 03:52:42;;;;;;;12.90;9.70;;;12.70;99.90;14.00;97435.00;;;;5086307;28;20278;-68
2022/11/03 03:55:36;;;;;;;13.30;10.07;;;12.70;99.90;13.80;97437.00;;;;5092351;28;20304;-68
2022/11/03 03:58:25;;;;;;;11.23;7.80;;;12.60;99.90;14.00;97432.00;;;;5091294;28;20231;-67
2022/11/03 04:01:14;;;;;;;13.87;9.77;;;12.60;99.90;14.00;97434.00;;;;5079529;28;20199;-68
2022/11/03 04:04:03;;;;;;;15.07;8.93;;;12.60;99.90;13.60;97442.00;;;;5092191;28;20281;-67
2022/11/03 04:07:45;;;;;;;10.47;8.33;;;12.60;99.90;13.80;97433.00;;;;5084112;28;20247;-67
2022/11/03 04:10:03;;;;;;;13.47;9.30;;;12.50;99.90;13.90;97427.00;;;;5086306;28;20291;-67
2022/11/03 04:22:18;;;;;;;9.93;8.37;;;12.40;99.90;13.90;97421.00;;;;5091823;28;20195;-67
2022/11/03 04:25:09;;;;;;;13.10;10.17;;;12.40;99.90;13.50;97418.00;;;;5092329;28;20219;-67
2022/11/03 04:27:57;;;;;;;13.07;8.87;;;12.30;99.90;13.60;97430.00;;;;5091794;28;20210;-67
2022/11/03 04:30:46;;;;;;;11.13;8.60;;;12.30;99.90;13.70;97431.00;;;;5083451;28;20253;-67
2022/11/03 04:33:35;;;;;;;10.17;8.07;;;12.30;99.90;13.70;97425.00;;;;5090121;28;20666;-67
2022/11/03 04:36:25;;;;;;;16.40;8.60;;;12.30;99.90;13.60;97427.00;;;;5087079;28;20223;-67
2022/11/03 04:39:19;;;;;;;11.97;8.70;;;12.20;99.90;13.50;97430.00;;;;5090425;28;20602;-67
2022/11/03 04:42:17;;;;;;;10.97;8.23;;;12.20;99.90;13.40;97416.00;;;;5090499;28;20199;-67
2022/11/03 04:45:23;;;;;;;12.23;8.23;;;12.20;99.90;13.40;97420.00;;;;5090293;28;20250;-67
2022/11/03 04:48:15;;;;;;;10.43;7.80;;;12.10;99.90;13.60;97423.00;;;;5087162;28;20188;-67
2022/11/03 04:51:15;;;;;;;10.87;8.60;;;12.10;99.90;13.60;97422.00;;;;5082826;28;20199;-67
2022/11/03 04:54:11;;;;;;;10.67;7.37;;;12.10;99.90;13.60;97417.00;;;;5085717;28;20200;-67
2022/11/03 04:57:04;;;;;;;11.70;8.43;;;12.10;99.90;13.60;97428.00;;;;5081267;28;20196;-67
2022/11/03 04:59:55;;;;;;;13.27;6.63;;;12.10;99.90;13.50;97424.00;;;;5089832;28;20207;-67
2022/11/03 05:02:44;;;;;;;12.47;7.57;;;12.10;99.90;13.50;97428.00;;;;5091061;28;20207;-67
2022/11/03 05:05:33;;;;;;;11.63;7.20;;;12.10;99.90;13.50;97414.00;;;;5079388;28;20235;-67
2022/11/03 05:08:22;;;;;;;10.07;7.70;;;12.10;99.90;13.50;97415.00;;;;5085616;28;20210;-67
2022/11/03 05:11:21;;;;;;;10.40;7.03;;;12.10;99.90;13.60;97422.00;;;;5087427;28;20204;-67
2022/11/03 05:14:17;;;;;;;11.60;8.47;;;12.10;99.90;13.60;97427.00;;;;5084531;28;20200;-67
2022/11/03 05:17:22;;;;;;;13.23;7.27;;;12.10;99.90;13.60;97424.00;;;;5069899;28;20196;-67
2022/11/03 05:20:30;;;;;;;13.80;7.67;;;12.10;99.90;13.40;97413.00;;;;5070036;28;20235;-67
2022/11/03 05:23:23;;;;;;;11.03;8.20;;;12.00;99.90;13.50;97423.00;;;;5087807;28;20313;-67
2022/11/03 05:26:18;;;;;;;9.23;7.73;;;12.00;99.90;13.50;97415.00;;;;5084054;28;20263;-67
2022/11/03 05:29:15;;;;;;;11.00;7.80;;;12.00;99.90;13.50;97409.00;;;;5085097;28;20617;-67
2022/11/03 05:32:15;;;;;;;10.77;7.87;;;12.00;99.90;13.50;97410.00;;;;5089257;28;20643;-67
2022/11/03 05:35:06;;;;;;;21.40;8.37;;;12.00;99.90;13.50;97404.00;;;;5088356;28;20219;-67
2022/11/03 05:37:54;;;;;;;11.50;7.83;;;12.00;99.90;13.40;97408.00;;;;5087093;28;20187;-67
2022/11/03 05:40:44;;;;;;;9.40;7.93;;;11.90;99.90;13.50;97404.00;;;;5080823;28;20235;-67
2022/11/03 05:43:34;;;;;;;15.50;7.47;;;11.90;99.90;13.40;97408.00;;;;5086958;28;20199;-67
2022/11/03 05:46:23;;;;;;;11.20;8.43;;;11.90;99.90;13.40;97415.00;;;;5085168;28;20308;-67
2022/11/03 05:49:14;;;;;;;9.97;7.23;;;11.90;99.90;13.40;97416.00;;;;5090177;28;20238;-67
2022/11/03 05:52:02;;;;;;;10.57;7.23;;;11.90;99.90;13.30;97422.00;;;;5085381;28;20613;-67
2022/11/03 05:54:56;;;;;;;9.63;7.23;;;11.90;99.90;13.40;97421.00;;;;5080617;28;20260;-67
2022/11/03 05:57:45;;;;;;;11.20;7.77;;;11.90;99.90;13.10;97429.00;;;;5086173;28;20191;-66
2022/11/03 06:00:40;;;;;;;10.67;7.70;;;11.80;99.90;13.00;97425.00;;;;5085807;28;20248;-66
2022/11/03 06:03:36;;;;;;;11.53;7.80;;;11.80;99.90;13.00;97430.00;;;;5087085;28;20199;-66
2022/11/03 06:06:32;;;;;;;17.60;10.33;;;11.80;99.90;12.90;97420.00;;;;5085194;28;20775;-66
2022/11/03 06:09:23;;;;;;;10.87;8.47;;;11.70;99.90;13.10;97426.00;;;;5084946;28;20211;-66
2022/11/03 06:12:18;;;;;;;15.27;10.53;;;11.70;99.90;13.00;97423.00;;;;5083193;28;20218;-67
2022/11/03 06:15:22;;;;;;;10.17;7.90;;;11.70;99.90;12.80;97419.00;;;;5084274;28;20215;-66
2022/11/03 06:18:15;;;;;;;10.50;7.77;;;11.70;99.90;13.00;97424.00;;;;5080287;28;20202;-66
2022/11/03 06:21:08;;;;;;;9.27;7.30;;;11.60;99.90;13.10;97426.00;;;;5085802;28;20264;-66
2022/11/03 06:23:59;;;;;;;9.97;7.43;;;11.60;99.90;13.10;97433.00;;;;5083959;28;20300;-66
2022/11/03 06:26:49;;;;;;;15.27;7.33;;;11.60;99.90;13.00;97437.00;;;;5086223;28;20219;-67
2022/11/03 06:29:38;;;;;;;10.27;7.83;;;11.60;99.90;13.10;97428.00;;;;5081846;28;20199;-67
2022/11/03 06:32:27;;;;;;;12.57;8.03;;;11.70;99.90;13.10;97435.00;;;;5081943;28;20202;-66
2022/11/03 06:35:16;;;;;;;14.23;10.83;;;11.70;99.90;12.80;97442.00;;;;5084018;28;20219;-67
2022/11/03 06:38:13;;;;;;;11.97;7.90;;;11.60;99.90;12.90;97438.00;;;;5078211;28;20244;-67
2022/11/03 06:41:03;;;;;;;12.30;7.93;;;11.60;99.90;13.00;97440.00;;;;5084657;28;20195;-66
2022/11/03 06:43:52;;;;;;;10.77;7.33;;;11.60;99.90;13.10;97440.00;;;;5086468;28;20195;-66
2022/11/03 06:46:41;;;;;;;14.80;8.17;;;11.60;99.90;13.00;97439.00;;;;5085327;28;20301;-66
2022/11/03 06:49:33;;;;;;;11.47;7.90;;;11.60;99.90;13.00;97440.00;;;;5085992;28;20195;-66
2022/11/03 06:52:29;;;;;;;10.33;7.50;;;11.60;99.90;13.10;97440.00;;;;5084422;28;20191;-66
2022/11/03 06:55:25;;;;;;;7.47;6.77;;;11.60;99.90;13.20;97442.00;;;;5081992;28;20268;-66
2022/11/03 06:58:23;;;;;;;10.03;7.10;;;11.60;99.90;13.10;97444.00;;;;5081590;28;20203;-66
2022/11/03 07:01:16;;;;;;;10.33;6.60;;;11.60;99.90;13.20;97440.00;;;;5086833;28;20714;-66
2022/11/03 07:04:16;;;;;;;9.03;7.33;;;11.60;99.90;13.20;97443.00;;;;5073842;28;20290;-66
2022/11/03 07:07:05;;;;;;;8.70;6.57;;;11.70;99.90;13.20;97446.00;;;;5071965;28;20249;-66
2022/11/03 07:09:54;;;;;;;9.53;6.63;;;11.70;99.90;13.20;97444.00;;;;5071911;28;20200;-66
2022/11/03 07:12:43;;;;;;;13.33;7.00;;;11.70;99.90;13.20;97453.00;;;;5079676;28;20196;-66
2022/11/03 07:15:38;;;;;;;9.33;7.40;;;11.70;99.90;13.20;97439.00;;;;5085187;28;20257;-66
2022/11/03 07:18:32;;;;;;;12.13;6.90;;;11.80;99.90;13.10;97443.00;;;;5091989;28;20237;-66
2022/11/03 07:21:32;;;;;;;10.30;7.13;;;11.70;99.90;12.90;97431.00;;;;5085888;28;20721;-66
2022/11/03 07:24:24;;;;;;;8.00;6.77;;;11.70;99.90;12.80;97431.00;;;;5091480;28;20247;-67
2022/11/03 07:27:21;;;;;;;11.27;7.93;;;11.70;99.90;12.80;97432.00;;;;5091616;28;20651;-66
2022/11/03 07:30:19;;;;;;;9.63;6.53;;;11.60;99.90;12.80;97420.00;;;;5084730;28;20204;-66
2022/11/03 07:33:19;;;;;;;12.93;6.83;;;11.60;99.90;13.00;97427.00;;;;5089025;28;20623;-67
2022/11/03 07:36:14;;;;;;;10.67;6.83;;;11.60;99.90;13.10;97424.00;;;;5088818;28;20260;-66
2022/11/03 07:39:04;;;;;;;8.07;6.77;;;11.70;99.90;13.30;97413.00;;;;5081338;28;20226;-66
2022/11/03 07:41:53;;;;;;;11.30;6.53;;;11.70;99.90;13.50;97399.00;;;;5079692;28;20282;-67
2022/11/03 07:44:42;;;;;;;7.00;6.10;;;11.80;99.90;13.50;97398.00;;;;5082795;28;20330;-67
2022/11/03 07:47:30;;;;;;;9.70;6.43;;;11.90;99.90;13.40;97407.00;;;;5090152;28;20223;-67
2022/11/03 07:50:21;;;;;;;11.97;6.43;;;11.90;99.90;13.40;97406.00;;;;5080260;28;20204;-67
2022/11/03 07:53:14;;;;;;;7.97;5.57;;;11.90;99.90;13.40;97394.00;;;;5086329;28;20204;-67
2022/11/03 07:56:14;;;;;;;16.30;6.47;;;12.00;99.90;13.40;97395.00;;;;5088228;28;21469;-67
2022/11/03 07:59:16;;;;;;;10.20;6.20;;;12.00;99.90;13.60;97395.00;;;;5089401;28;20199;-67
2022/11/03 08:02:23;;;;;;;9.57;6.87;;;12.00;99.90;13.30;97386.00;;;;5081914;28;20207;-67
2022/11/03 08:05:12;;;;;;;11.17;6.27;;;12.00;99.90;13.20;97383.00;;;;5083597;28;20223;-67
2022/11/03 08:08:02;;;;;;;8.30;6.53;;;12.00;99.90;13.10;97385.00;;;;5084032;28;20227;-67
2022/11/03 08:10:51;;;;;;;11.87;7.10;;;11.90;99.90;13.20;97375.00;;;;5084236;28;20203;-66
2022/11/03 08:13:40;;;;;;;8.93;7.33;;;11.90;99.90;13.20;97368.00;;;;5084757;28;20280;-67
2022/11/03 08:16:28;;;;;;;11.90;6.93;;;11.90;99.90;13.20;97364.00;;;;5084974;28;20279;-67
2022/11/03 08:19:17;;;;;;;7.53;5.90;;;11.90;99.90;13.30;97351.00;;;;5074898;28;20300;-67
2022/11/03 08:22:06;;;;;;;7.83;6.63;;;11.90;99.90;13.40;97361.00;;;;5085850;28;20296;-66
2022/11/03 08:24:56;;;;;;;7.33;5.83;;;12.00;99.90;13.30;97350.00;;;;5085258;28;20207;-66
2022/11/03 08:27:45;;;;;;;12.23;7.73;;;12.00;99.90;13.30;97351.00;;;;5093316;28;20227;-66
2022/11/03 08:30:34;;;;;;;14.20;6.37;;;12.00;99.90;13.30;97347.00;;;;5081431;28;20211;-66
2022/11/03 08:33:22;;;;;;;11.87;7.27;;;12.00;99.90;13.40;97345.00;;;;5089620;28;20273;-67
2022/11/03 08:36:12;;;;;;;10.87;7.50;;;12.00;99.90;13.60;97345.00;;;;5076740;28;20220;-66
2022/11/03 08:39:01;;;;;;;8.83;6.07;;;12.00;99.90;13.40;97340.00;;;;5076799;28;20241;-67
2022/11/03 08:41:51;;;;;;;9.10;6.70;;;12.10;99.90;13.30;97342.00;;;;5082180;28;20203;-67
2022/11/03 08:44:39;;;;;;;7.80;5.80;;;12.00;99.90;13.30;97334.00;;;;5088016;28;20690;-67
2022/11/03 08:47:28;;;;;;;7.77;5.67;;;12.00;99.90;13.40;97318.00;;;;5086675;28;20675;-66
2022/11/03 08:50:17;;;;;;;9.00;6.27;;;12.10;99.90;13.70;97314.00;;;;5071748;28;20203;-67
2022/11/03 08:53:06;;;;;;;7.40;5.97;;;12.20;99.90;14.10;97308.00;;;;5084704;28;20200;-67
2022/11/03 08:55:55;;;;;;;8.50;6.77;;;12.30;99.90;14.40;97311.00;;;;5081452;28;20230;-67
2022/11/03 08:58:45;;;;;;;8.37;6.03;;;12.50;99.90;14.30;97312.00;;;;5085052;28;20688;-67
2022/11/03 09:01:34;;;;;;;7.47;5.27;;;12.60;99.90;14.30;97314.00;;;;5083709;28;20682;-67
2022/11/03 09:04:23;;;;;;;8.83;5.27;;;12.70;99.90;14.40;97300.00;;;;5082692;28;20204;-67
2022/11/03 09:07:11;;;;;;;8.43;6.33;;;12.80;99.90;14.30;97296.00;;;;5082549;28;20237;-67
2022/11/03 09:10:00;;;;;;;9.50;6.60;;;12.80;99.90;14.30;97294.00;;;;5081975;28;20214;-67
2022/11/03 09:13:04;;;;;;;6.97;5.50;;;12.90;99.90;14.40;97295.00;;;;5084896;28;20827;-67
2022/11/03 09:15:54;;;;;;;6.13;4.87;;;12.90;99.90;14.20;97294.00;;;;5072144;28;20216;-67
2022/11/03 09:18:44;;;;;;;7.70;4.90;;;12.90;99.90;14.20;97299.00;;;;5085763;28;20256;-67
2022/11/03 09:21:32;;;;;;;6.73;4.80;;;12.90;99.90;14.30;97291.00;;;;5083679;28;20195;-67
2022/11/03 09:24:21;;;;;;;8.20;4.37;;;12.90;99.90;14.40;97294.00;;;;5080923;28;20199;-67
2022/11/03 09:27:10;;;;;;;7.97;6.20;;;12.90;99.90;14.60;97291.00;;;;5089921;28;20195;-67
2022/11/03 09:29:58;;;;;;;8.23;5.83;;;13.00;99.90;14.70;97286.00;;;;5079673;28;20199;-67
2022/11/03 09:33:00;;;;;;;6.37;4.90;;;13.10;99.90;14.70;97269.00;;;;5085794;28;20207;-67
2022/11/03 09:35:49;;;;;;;6.10;4.20;;;13.20;99.90;14.80;97269.00;;;;5080117;28;20223;-67
2022/11/03 09:38:38;;;;;;;9.67;4.60;;;13.30;99.90;14.90;97273.00;;;;5086273;28;20617;-67
2022/11/03 09:41:27;;;;;;;12.30;5.17;;;13.30;99.90;15.20;97262.00;;;;5083629;28;20199;-67
2022/11/03 09:44:33;;;;;;;5.83;4.43;;;13.40;99.90;15.30;97272.00;;;;5086730;28;20287;-67
2022/11/03 09:47:28;;;;;;;7.20;4.43;;;13.60;99.90;15.20;97265.00;;;;5088083;28;20203;-66
2022/11/03 09:50:20;;;;;;;7.00;4.43;;;13.60;99.90;14.90;97265.00;;;;5089181;28;20251;-67
2022/11/03 09:53:11;;;;;;;8.60;4.70;;;13.60;99.90;15.10;97258.00;;;;5088627;28;20253;-67
2022/11/03 09:55:59;;;;;;;6.40;3.87;;;13.60;99.90;15.40;97254.00;;;;5080952;28;20250;-67
2022/11/03 09:58:48;;;;;;;5.13;3.87;;;13.60;99.90;15.10;97240.00;;;;5082425;28;20627;-67
2022/11/03 10:01:40;;;;;;;8.77;4.77;;;13.70;99.90;15.20;97239.00;;;;5078029;28;20210;-67
2022/11/03 10:04:30;;;;;;;9.67;4.37;;;13.70;99.90;15.30;97227.00;;;;5088209;28;20710;-67
2022/11/03 10:07:21;;;;;;;9.50;4.87;;;13.70;99.90;15.50;97229.00;;;;5084504;28;20241;-67
2022/11/03 10:10:17;;;;;;;7.07;5.03;;;13.80;99.90;15.60;97222.00;;;;5080707;28;20719;-67
2022/11/03 10:13:11;;;;;;;7.57;4.23;;;13.90;99.90;15.60;97222.00;;;;5084436;28;20199;-67
2022/11/03 10:16:00;;;;;;;5.70;4.53;;;13.90;99.90;15.50;97210.00;;;;5088420;28;20250;-67
2022/11/03 10:18:50;;;;;;;8.20;4.53;;;14.00;99.90;15.20;97204.00;;;;5084347;28;20246;-67
2022/11/03 10:21:39;;;;;;;4.93;4.43;;;13.90;99.90;15.20;97198.00;;;;5081123;28;20678;-67
2022/11/03 10:24:29;;;;;;;6.77;5.77;;;13.90;99.90;15.40;97195.00;;;;5088301;28;20207;-67
2022/11/03 10:27:25;;;;;;;6.23;4.87;;;13.80;99.90;15.80;97184.00;;;;5085844;28;20272;-67
2022/11/03 10:30:14;;;;;;;6.93;4.40;;;13.90;99.90;16.10;97167.00;;;;5087952;28;20579;-67
2022/11/03 10:33:02;;;;;;;8.33;5.13;;;14.10;99.90;16.00;97160.00;;;;5090850;28;20207;-67
2022/11/03 10:35:51;;;;;;;5.93;4.83;;;14.30;99.90;16.20;97163.00;;;;5086265;28;20260;-67
2022/11/03 10:38:40;;;;;;;7.17;5.67;;;14.40;99.90;16.50;97162.00;;;;5085401;28;20203;-67
2022/11/03 10:41:32;;;;;;;7.43;6.17;;;14.50;99.90;16.30;97158.00;;;;5091666;28;20230;-67
2022/11/03 10:44:20;;;;;;;12.57;6.23;;;14.60;99.90;15.90;97148.00;;;;5091981;28;20621;-67
2022/11/03 10:47:27;;;;;;;7.33;6.00;;;14.60;99.90;15.70;97156.00;;;;5091466;28;20650;-67
2022/11/03 10:50:25;;;;;;;11.50;6.73;;;14.50;99.90;15.10;97141.00;;;;5084493;28;20707;-68
2022/11/03 10:53:18;;;;;;;12.70;7.97;;;14.20;99.90;15.20;97128.00;;;;5089456;28;20597;-67
2022/11/03 10:56:07;;;;;;;9.80;7.13;;;14.00;99.90;15.40;97118.00;;;;5096269;28;20237;-67
2022/11/03 10:58:58;;;;;;;11.50;7.13;;;14.00;99.90;15.60;97115.00;;;;5097196;28;20203;-67
2022/11/03 11:01:51;;;;;;;11.40;7.27;;;14.10;99.90;15.80;97107.00;;;;5073336;28;20192;-67
2022/11/03 11:04:41;;;;;;;11.60;7.80;;;14.20;99.90;15.80;97112.00;;;;5077090;28;20204;-67
2022/11/03 11:07:36;;;;;;;12.53;6.40;;;14.20;99.90;15.90;97108.00;;;;5089774;28;20199;-67
2022/11/03 11:10:28;;;;;;;9.73;5.93;;;14.30;99.90;15.50;97104.00;;;;5084109;28;20717;-68
2022/11/03 11:13:28;;;;;;;7.70;6.30;;;14.30;99.90;15.50;97100.00;;;;5086639;28;20184;-68
2022/11/03 11:16:51;;;;;;;9.13;5.23;;;14.20;99.90;15.50;97097.00;;;;5081870;28;20231;-67
2022/11/03 11:20:30;;;;;;;8.20;6.10;;;14.10;99.90;15.60;97084.00;;;;5071683;28;20257;-67
2022/11/03 11:23:46;;;;;;;7.70;5.83;;;14.10;99.90;15.50;97084.00;;;;5100185;28;20214;-67
2022/11/03 11:26:35;;;;;;;7.83;5.17;;;14.10;99.90;15.70;97072.00;;;;5051432;28;20219;-67
2022/11/03 11:29:44;;;;;;;8.53;5.40;;;14.10;99.90;15.80;97072.00;;;;5089094;28;20227;-67
2022/11/03 11:32:59;;;;;;;7.13;5.40;;;14.20;99.90;15.60;97064.00;;;;5083527;28;20233;-67
2022/11/03 11:36:27;;;;;;;8.63;4.90;;;14.20;99.90;15.60;97061.00;;;;5082803;28;20226;-67
2022/11/03 11:39:45;;;;;;;6.03;5.37;;;14.20;99.90;15.40;97067.00;;;;5090543;28;20211;-67
2022/11/03 11:42:34;;;;;;;10.60;4.70;;;14.10;99.90;15.20;97068.00;;;;5090993;28;20203;-67
2022/11/03 11:46:15;;;;;;;10.17;5.10;;;14.00;99.90;15.10;97058.00;;;;5079700;28;20775;-67
2022/11/03 11:49:19;;;;;;;6.83;4.77;;;13.90;99.90;15.30;97038.00;;;;5082437;28;20230;-68
2022/11/03 11:52:09;;;;;;;8.53;4.73;;;13.90;99.90;15.60;97037.00;;;;5083047;28;20280;-67
2022/11/03 11:55:00;;;;;;;11.40;4.53;;;14.00;99.90;15.90;97032.00;;;;5083873;28;20288;-68
2022/11/03 11:57:49;;;;;;;9.93;4.90;;;14.10;99.90;16.00;97021.00;;;;5085514;28;20272;-67
2022/11/03 12:00:37;;;;;;;6.27;4.40;;;14.20;99.90;16.10;97008.00;;;;5090760;28;20204;-67
2022/11/03 12:03:31;;;;;;;12.97;5.57;;;14.30;99.90;15.90;97004.00;;;;5091309;28;20633;-68
2022/11/03 12:06:34;;;;;;;9.10;5.30;;;14.40;99.90;16.00;97012.00;;;;5079327;28;20227;-68
2022/11/03 12:09:25;;;;;;;11.83;4.73;;;14.50;99.90;15.70;96996.00;;;;5083580;28;20223;-67
2022/11/03 12:12:34;;;;;;;6.63;4.73;;;14.40;99.90;16.00;96981.00;;;;5089633;28;20195;-67
2022/11/03 12:15:49;;;;;;;12.67;4.90;;;14.50;99.90;15.70;96989.00;;;;5073023;28;20227;-67
2022/11/03 12:18:40;;;;;;;10.00;4.83;;;14.40;99.90;15.60;96987.00;;;;5082718;28;20686;-67
2022/11/03 12:21:50;;;;;;;7.37;4.63;;;14.40;99.90;15.50;96982.00;;;;5078253;28;20199;-67
2022/11/03 12:24:50;;;;;;;4.77;4.13;;;14.30;99.90;15.70;96969.00;;;;5082887;28;20569;-67
2022/11/03 12:27:43;;;;;;;6.10;4.27;;;14.30;99.90;15.30;96968.00;;;;5087871;28;20208;-67
2022/11/03 12:30:32;;;;;;;8.77;4.87;;;14.20;99.90;15.40;96970.00;;;;5087057;28;20219;-67
2022/11/03 12:33:24;;;;;;;8.80;4.83;;;14.10;99.90;15.30;96960.00;;;;5087672;28;20585;-68
2022/11/03 12:36:13;;;;;;;7.67;4.70;;;14.10;99.90;15.50;96948.00;;;;5083004;28;20223;-67
2022/11/03 12:39:03;;;;;;;13.80;5.67;;;14.10;99.90;15.90;96944.00;;;;5075555;28;20202;-67
2022/11/03 12:41:52;;;;;;;9.63;5.30;;;14.20;99.90;15.30;96952.00;;;;5073357;28;20199;-67
2022/11/03 12:44:40;;;;;;;7.73;4.27;;;14.10;99.90;15.30;96952.00;;;;5086889;28;20203;-67
2022/11/03 12:47:31;;;;;;;8.53;4.43;;;14.10;99.90;15.10;96937.00;;;;5087309;28;20667;-67
2022/11/03 12:50:19;;;;;;;6.53;4.27;;;14.00;99.90;15.20;96928.00;;;;5087445;28;20310;-67
2022/11/03 12:53:08;;;;;;;8.67;4.90;;;14.00;99.90;15.00;96928.00;;;;5088956;28;20253;-67
2022/11/03 12:55:58;;;;;;;9.10;4.90;;;13.90;99.90;15.10;96924.00;;;;5083983;28;20211;-67
2022/11/03 12:58:47;;;;;;;9.80;5.67;;;13.90;99.90;15.10;96917.00;;;;5090685;28;20206;-68
2022/11/03 13:01:36;;;;;;;11.40;5.57;;;13.90;99.90;15.20;96916.00;;;;5084368;28;20199;-67
2022/11/03 13:04:25;;;;;;;10.40;5.67;;;13.90;99.90;15.50;96898.00;;;;5085941;28;20204;-67
2022/11/03 13:07:14;;;;;;;6.00;4.37;;;14.00;99.90;15.60;96893.00;;;;5086897;28;20581;-67